sensor_id;sensor_type;location;lat;lon;timestamp;P1;durP1;ratioP1;P2;durP2;ratioP2
1887;SDS011;944;51.574;6.980;2022-09-21T07:03:12;17.90;;;9.47;;
1887;SDS011;944;51.574;6.980;2022-09-21T07:05:36;14.90;;;9.10;;
1887;SDS011;944;51.574;6.980;2022-09-21T07:08:15;19.07;;;9.83;;
1887;SDS011;944;51.574;6.980;2022-09-21T07:10:48;17.80;;;9.57;;
1887;SDS011;944;51.574;6.980;2022-09-21T07:13:43;26.50;;;10.07;;
1887;SDS011;944;51.574;6.980;2022-09-21T07:16:40;86.60;;;72.63;;
1887;SDS011;944;51.574;6.980;2022-09-21T07:19:07;21.67;;;10.73;;
1887;SDS011;944;51.574;6.980;2022-09-21T07:21:53;16.90;;;9.33;;
1887;SDS011;944;51.574;6.980;2022-09-21T07:24:20;16.87;;;9.97;;
1887;SDS011;944;51.574;6.980;2022-09-21T07:30:30;21.73;;;10.53;;
1887;SDS011;944;51.574;6.980;2022-09-21T07:32:59;28.93;;;11.00;;
1887;SDS011;944;51.574;6.980;2022-09-21T07:35:26;18.30;;;9.53;;
1887;SDS011;944;51.574;6.980;2022-09-21T07:37:53;19.70;;;10.77;;
1887;SDS011;944;51.574;6.980;2022-09-21T07:40:23;19.37;;;10.17;;
1887;SDS011;944;51.574;6.980;2022-09-21T07:42:51;17.40;;;10.70;;
1887;SDS011;944;51.574;6.980;2022-09-21T07:45:21;18.07;;;10.13;;
1887;SDS011;944;51.574;6.980;2022-09-21T07:47:50;17.60;;;10.60;;
1887;SDS011;944;51.574;6.980;2022-09-21T07:50:43;22.40;;;10.23;;
1887;SDS011;944;51.574;6.980;2022-09-21T07:53:10;24.80;;;11.10;;
1887;SDS011;944;51.574;6.980;2022-09-21T07:55:37;22.30;;;10.40;;
1887;SDS011;944;51.574;6.980;2022-09-21T07:58:08;18.33;;;9.77;;
1887;SDS011;944;51.574;6.980;2022-09-21T08:00:53;21.33;;;10.10;;
1887;SDS011;944;51.574;6.980;2022-09-21T08:03:20;18.97;;;10.30;;
1887;SDS011;944;51.574;6.980;2022-09-21T08:05:53;12.97;;;8.57;;
1887;SDS011;944;51.574;6.980;2022-09-21T08:08:19;15.10;;;8.90;;
1887;SDS011;944;51.574;6.980;2022-09-21T08:11:00;19.70;;;8.80;;
1887;SDS011;944;51.574;6.980;2022-09-21T08:13:36;17.30;;;6.83;;
1887;SDS011;944;51.574;6.980;2022-09-21T08:16:04;15.57;;;7.77;;
1887;SDS011;944;51.574;6.980;2022-09-21T08:18:34;15.80;;;7.10;;
1887;SDS011;944;51.574;6.980;2022-09-21T08:21:09;12.90;;;7.17;;
1887;SDS011;944;51.574;6.980;2022-09-21T08:23:38;12.03;;;6.80;;
1887;SDS011;944;51.574;6.980;2022-09-21T08:26:12;12.97;;;6.57;;
1887;SDS011;944;51.574;6.980;2022-09-21T08:28:43;12.10;;;6.50;;
1887;SDS011;944;51.574;6.980;2022-09-21T08:31:13;10.70;;;5.80;;
1887;SDS011;944;51.574;6.980;2022-09-21T08:33:43;10.67;;;7.00;;
1887;SDS011;944;51.574;6.980;2022-09-21T08:36:15;19.97;;;7.87;;
1887;SDS011;944;51.574;6.980;2022-09-21T08:38:42;16.07;;;8.37;;
1887;SDS011;944;51.574;6.980;2022-09-21T08:41:12;18.27;;;6.63;;
1887;SDS011;944;51.574;6.980;2022-09-21T08:43:44;16.63;;;7.80;;
1887;SDS011;944;51.574;6.980;2022-09-21T08:46:21;10.20;;;6.20;;
1887;SDS011;944;51.574;6.980;2022-09-21T08:48:54;12.93;;;6.80;;
1887;SDS011;944;51.574;6.980;2022-09-21T08:51:28;11.90;;;5.30;;
1887;SDS011;944;51.574;6.980;2022-09-21T08:54:10;8.80;;;5.73;;
1887;SDS011;944;51.574;6.980;2022-09-21T08:56:44;11.53;;;5.50;;
1887;SDS011;944;51.574;6.980;2022-09-21T08:59:12;14.07;;;6.50;;
1887;SDS011;944;51.574;6.980;2022-09-21T09:01:44;10.37;;;4.23;;
1887;SDS011;944;51.574;6.980;2022-09-21T09:04:29;10.70;;;5.20;;
1887;SDS011;944;51.574;6.980;2022-09-21T09:07:20;9.90;;;4.53;;
1887;SDS011;944;51.574;6.980;2022-09-21T09:10:12;15.83;;;5.83;;
1887;SDS011;944;51.574;6.980;2022-09-21T09:13:01;12.07;;;5.60;;
1887;SDS011;944;51.574;6.980;2022-09-21T09:15:55;13.00;;;5.67;;
1887;SDS011;944;51.574;6.980;2022-09-21T09:18:35;10.27;;;4.50;;
1887;SDS011;944;51.574;6.980;2022-09-21T09:21:11;9.37;;;4.20;;
1887;SDS011;944;51.574;6.980;2022-09-21T09:23:45;12.80;;;4.90;;
1887;SDS011;944;51.574;6.980;2022-09-21T09:26:17;10.50;;;3.83;;
1887;SDS011;944;51.574;6.980;2022-09-21T09:28:50;13.40;;;4.60;;
1887;SDS011;944;51.574;6.980;2022-09-21T09:31:21;5.93;;;3.73;;
1887;SDS011;944;51.574;6.980;2022-09-21T09:33:59;9.90;;;3.73;;
1887;SDS011;944;51.574;6.980;2022-09-21T09:36:36;6.33;;;2.90;;
1887;SDS011;944;51.574;6.980;2022-09-21T09:39:10;7.07;;;3.40;;
1887;SDS011;944;51.574;6.980;2022-09-21T09:41:42;7.87;;;3.70;;
1887;SDS011;944;51.574;6.980;2022-09-21T09:47:20;6.30;;;2.80;;
1887;SDS011;944;51.574;6.980;2022-09-21T09:50:07;6.23;;;2.30;;
1887;SDS011;944;51.574;6.980;2022-09-21T09:53:10;7.87;;;2.80;;
1887;SDS011;944;51.574;6.980;2022-09-21T09:55:43;8.20;;;2.67;;
1887;SDS011;944;51.574;6.980;2022-09-21T09:58:16;5.47;;;2.63;;
1887;SDS011;944;51.574;6.980;2022-09-21T10:00:47;6.40;;;2.40;;
1887;SDS011;944;51.574;6.980;2022-09-21T10:06:59;9.60;;;2.70;;
1887;SDS011;944;51.574;6.980;2022-09-21T10:09:27;5.60;;;2.63;;
1887;SDS011;944;51.574;6.980;2022-09-21T10:12:16;8.20;;;3.20;;
1887;SDS011;944;51.574;6.980;2022-09-21T10:14:50;5.83;;;3.00;;
1887;SDS011;944;51.574;6.980;2022-09-21T10:17:35;8.00;;;2.57;;
1887;SDS011;944;51.574;6.980;2022-09-21T10:20:04;11.50;;;3.00;;
1887;SDS011;944;51.574;6.980;2022-09-21T10:22:41;10.73;;;3.20;;
1887;SDS011;944;51.574;6.980;2022-09-21T10:25:13;4.70;;;2.50;;
1887;SDS011;944;51.574;6.980;2022-09-21T10:30:47;5.47;;;2.67;;
1887;SDS011;944;51.574;6.980;2022-09-21T10:33:17;6.20;;;3.27;;
1887;SDS011;944;51.574;6.980;2022-09-21T10:35:49;11.10;;;2.97;;
1887;SDS011;944;51.574;6.980;2022-09-21T10:38:18;8.70;;;3.10;;
1887;SDS011;944;51.574;6.980;2022-09-21T10:40:47;5.87;;;2.17;;
1887;SDS011;944;51.574;6.980;2022-09-21T10:43:22;7.33;;;2.53;;
1887;SDS011;944;51.574;6.980;2022-09-21T10:45:55;6.07;;;2.50;;
1887;SDS011;944;51.574;6.980;2022-09-21T10:48:31;5.00;;;2.40;;
1887;SDS011;944;51.574;6.980;2022-09-21T10:50:58;7.10;;;2.30;;
1887;SDS011;944;51.574;6.980;2022-09-21T10:53:28;5.57;;;2.20;;
1887;SDS011;944;51.574;6.980;2022-09-21T10:55:58;4.97;;;2.30;;
1887;SDS011;944;51.574;6.980;2022-09-21T10:58:30;6.30;;;2.20;;
1887;SDS011;944;51.574;6.980;2022-09-21T11:01:08;5.90;;;1.90;;
1887;SDS011;944;51.574;6.980;2022-09-21T11:03:43;5.70;;;2.10;;
1887;SDS011;944;51.574;6.980;2022-09-21T11:06:25;6.57;;;2.20;;
1887;SDS011;944;51.574;6.980;2022-09-21T11:08:57;5.33;;;1.80;;
1887;SDS011;944;51.574;6.980;2022-09-21T11:11:31;5.00;;;2.00;;
1887;SDS011;944;51.574;6.980;2022-09-21T11:14:15;8.03;;;2.53;;
1887;SDS011;944;51.574;6.980;2022-09-21T11:16:56;8.60;;;2.10;;
1887;SDS011;944;51.574;6.980;2022-09-21T11:19:34;3.90;;;2.10;;
1887;SDS011;944;51.574;6.980;2022-09-21T11:22:14;7.10;;;4.27;;
1887;SDS011;944;51.574;6.980;2022-09-21T11:24:58;5.80;;;1.50;;
1887;SDS011;944;51.574;6.980;2022-09-21T11:27:33;6.77;;;2.67;;
1887;SDS011;944;51.574;6.980;2022-09-21T11:30:09;4.53;;;1.93;;
1887;SDS011;944;51.574;6.980;2022-09-21T11:32:46;6.47;;;2.03;;
1887;SDS011;944;51.574;6.980;2022-09-21T11:35:34;6.37;;;2.90;;
1887;SDS011;944;51.574;6.980;2022-09-21T11:38:12;8.97;;;2.80;;
1887;SDS011;944;51.574;6.980;2022-09-21T11:40:55;6.50;;;2.10;;
1887;SDS011;944;51.574;6.980;2022-09-21T11:43:48;9.20;;;2.40;;
1887;SDS011;944;51.574;6.980;2022-09-21T11:46:31;5.17;;;2.03;;
1887;SDS011;944;51.574;6.980;2022-09-21T11:49:13;5.47;;;1.67;;
1887;SDS011;944;51.574;6.980;2022-09-21T11:52:06;6.20;;;2.03;;
1887;SDS011;944;51.574;6.980;2022-09-21T11:54:55;2.90;;;1.50;;
1887;SDS011;944;51.574;6.980;2022-09-21T11:57:51;13.77;;;2.07;;
1887;SDS011;944;51.574;6.980;2022-09-21T12:00:28;4.63;;;1.77;;
1887;SDS011;944;51.574;6.980;2022-09-21T12:07:02;3.90;;;1.90;;
1887;SDS011;944;51.574;6.980;2022-09-21T12:10:01;3.97;;;2.10;;
1887;SDS011;944;51.574;6.980;2022-09-21T12:13:01;6.13;;;1.70;;
1887;SDS011;944;51.574;6.980;2022-09-21T12:15:38;6.83;;;2.00;;
1887;SDS011;944;51.574;6.980;2022-09-21T12:18:12;4.20;;;2.20;;
1887;SDS011;944;51.574;6.980;2022-09-21T12:20:50;5.60;;;1.97;;
1887;SDS011;944;51.574;6.980;2022-09-21T12:23:27;6.43;;;1.80;;
1887;SDS011;944;51.574;6.980;2022-09-21T12:26:03;6.13;;;2.03;;
1887;SDS011;944;51.574;6.980;2022-09-21T12:28:33;8.73;;;2.10;;
1887;SDS011;944;51.574;6.980;2022-09-21T12:31:10;8.17;;;2.17;;
1887;SDS011;944;51.574;6.980;2022-09-21T12:33:48;5.07;;;1.73;;
1887;SDS011;944;51.574;6.980;2022-09-21T12:36:20;10.10;;;1.97;;
1887;SDS011;944;51.574;6.980;2022-09-21T12:39:04;6.50;;;2.13;;
1887;SDS011;944;51.574;6.980;2022-09-21T12:41:49;2.50;;;1.57;;
1887;SDS011;944;51.574;6.980;2022-09-21T12:44:30;7.90;;;1.83;;
1887;SDS011;944;51.574;6.980;2022-09-21T12:47:17;5.37;;;2.07;;
1887;SDS011;944;51.574;6.980;2022-09-21T12:49:58;6.73;;;2.37;;
1887;SDS011;944;51.574;6.980;2022-09-21T12:52:31;3.27;;;1.70;;
1887;SDS011;944;51.574;6.980;2022-09-21T12:55:06;10.53;;;2.20;;
1887;SDS011;944;51.574;6.980;2022-09-21T12:57:55;6.10;;;2.00;;
1887;SDS011;944;51.574;6.980;2022-09-21T13:00:33;4.83;;;1.97;;
1887;SDS011;944;51.574;6.980;2022-09-21T13:03:13;5.03;;;2.10;;
1887;SDS011;944;51.574;6.980;2022-09-21T13:05:48;6.80;;;1.60;;
1887;SDS011;944;51.574;6.980;2022-09-21T13:08:34;6.47;;;1.83;;
1887;SDS011;944;51.574;6.980;2022-09-21T13:15:11;3.60;;;1.70;;
1887;SDS011;944;51.574;6.980;2022-09-21T13:18:00;6.53;;;2.07;;
1887;SDS011;944;51.574;6.980;2022-09-21T13:20:39;5.27;;;1.83;;
1887;SDS011;944;51.574;6.980;2022-09-21T13:26:03;10.33;;;2.13;;
1887;SDS011;944;51.574;6.980;2022-09-21T13:28:40;5.53;;;1.50;;
1887;SDS011;944;51.574;6.980;2022-09-21T13:32:19;3.87;;;1.43;;
1887;SDS011;944;51.574;6.980;2022-09-21T13:39:10;5.03;;;1.70;;
1887;SDS011;944;51.574;6.980;2022-09-21T13:41:45;8.33;;;1.57;;
1887;SDS011;944;51.574;6.980;2022-09-21T13:47:07;3.20;;;1.50;;
1887;SDS011;944;51.574;6.980;2022-09-21T13:49:40;4.70;;;1.20;;
1887;SDS011;944;51.574;6.980;2022-09-21T13:52:22;8.63;;;2.00;;
1887;SDS011;944;51.574;6.980;2022-09-21T13:54:56;5.60;;;1.90;;
1887;SDS011;944;51.574;6.980;2022-09-21T13:57:27;3.83;;;1.83;;
1887;SDS011;944;51.574;6.980;2022-09-21T14:00:05;3.80;;;1.30;;
1887;SDS011;944;51.574;6.980;2022-09-21T14:03:01;2.60;;;1.60;;
1887;SDS011;944;51.574;6.980;2022-09-21T14:05:37;2.90;;;1.70;;
1887;SDS011;944;51.574;6.980;2022-09-21T14:08:16;2.60;;;1.80;;
1887;SDS011;944;51.574;6.980;2022-09-21T14:14:30;4.23;;;1.50;;
1887;SDS011;944;51.574;6.980;2022-09-21T14:17:03;7.00;;;1.50;;
1887;SDS011;944;51.574;6.980;2022-09-21T14:23:25;6.63;;;1.80;;
1887;SDS011;944;51.574;6.980;2022-09-21T14:25:54;7.40;;;1.90;;
1887;SDS011;944;51.574;6.980;2022-09-21T14:32:03;3.30;;;1.77;;
1887;SDS011;944;51.574;6.980;2022-09-21T14:34:41;4.90;;;1.80;;
1887;SDS011;944;51.574;6.980;2022-09-21T14:37:19;8.23;;;1.80;;
1887;SDS011;944;51.574;6.980;2022-09-21T14:39:54;6.80;;;1.93;;
1887;SDS011;944;51.574;6.980;2022-09-21T14:42:25;3.40;;;1.37;;
1887;SDS011;944;51.574;6.980;2022-09-21T14:44:56;4.27;;;1.33;;
1887;SDS011;944;51.574;6.980;2022-09-21T14:47:32;3.40;;;1.43;;
1887;SDS011;944;51.574;6.980;2022-09-21T14:50:33;5.37;;;1.83;;
1887;SDS011;944;51.574;6.980;2022-09-21T14:56:53;11.83;;;2.10;;
1887;SDS011;944;51.574;6.980;2022-09-21T14:59:43;6.93;;;1.70;;
1887;SDS011;944;51.574;6.980;2022-09-21T15:02:23;4.67;;;1.80;;
1887;SDS011;944;51.574;6.980;2022-09-21T15:04:55;2.67;;;1.20;;
1887;SDS011;944;51.574;6.980;2022-09-21T15:07:35;3.93;;;1.40;;
1887;SDS011;944;51.574;6.980;2022-09-21T15:10:27;4.30;;;1.73;;
1887;SDS011;944;51.574;6.980;2022-09-21T15:13:18;4.67;;;2.03;;
1887;SDS011;944;51.574;6.980;2022-09-21T15:15:59;4.97;;;1.57;;
1887;SDS011;944;51.574;6.980;2022-09-21T15:22:22;1.90;;;1.20;;
1887;SDS011;944;51.574;6.980;2022-09-21T15:25:02;2.43;;;1.40;;
1887;SDS011;944;51.574;6.980;2022-09-21T15:27:30;3.27;;;1.77;;
1887;SDS011;944;51.574;6.980;2022-09-21T15:30:00;5.57;;;1.90;;
1887;SDS011;944;51.574;6.980;2022-09-21T15:32:33;7.23;;;1.70;;
1887;SDS011;944;51.574;6.980;2022-09-21T15:35:15;9.23;;;1.70;;
1887;SDS011;944;51.574;6.980;2022-09-21T15:37:45;4.87;;;1.80;;
1887;SDS011;944;51.574;6.980;2022-09-21T15:40:16;3.57;;;1.53;;
1887;SDS011;944;51.574;6.980;2022-09-21T15:43:02;2.00;;;1.70;;
1887;SDS011;944;51.574;6.980;2022-09-21T15:45:48;4.97;;;1.70;;
1887;SDS011;944;51.574;6.980;2022-09-21T15:48:23;4.90;;;1.70;;
1887;SDS011;944;51.574;6.980;2022-09-21T15:50:52;2.73;;;2.07;;
1887;SDS011;944;51.574;6.980;2022-09-21T15:57:21;6.83;;;2.37;;
1887;SDS011;944;51.574;6.980;2022-09-21T16:03:39;5.43;;;2.20;;
1887;SDS011;944;51.574;6.980;2022-09-21T16:06:17;2.57;;;1.60;;
1887;SDS011;944;51.574;6.980;2022-09-21T16:08:51;4.70;;;1.60;;
1887;SDS011;944;51.574;6.980;2022-09-21T16:11:31;4.53;;;2.10;;
1887;SDS011;944;51.574;6.980;2022-09-21T16:18:00;3.40;;;1.60;;
1887;SDS011;944;51.574;6.980;2022-09-21T16:24:43;5.07;;;2.43;;
1887;SDS011;944;51.574;6.980;2022-09-21T16:27:16;7.30;;;2.03;;
1887;SDS011;944;51.574;6.980;2022-09-21T16:29:46;6.67;;;2.20;;
1887;SDS011;944;51.574;6.980;2022-09-21T16:32:26;5.13;;;2.30;;
1887;SDS011;944;51.574;6.980;2022-09-21T16:35:19;4.90;;;2.30;;
1887;SDS011;944;51.574;6.980;2022-09-21T16:41:35;4.47;;;2.77;;
1887;SDS011;944;51.574;6.980;2022-09-21T16:44:12;9.33;;;3.20;;
1887;SDS011;944;51.574;6.980;2022-09-21T16:46:55;5.53;;;3.17;;
1887;SDS011;944;51.574;6.980;2022-09-21T16:49:29;8.17;;;3.57;;
1887;SDS011;944;51.574;6.980;2022-09-21T16:56:26;5.97;;;3.50;;
1887;SDS011;944;51.574;6.980;2022-09-21T16:58:58;5.03;;;2.90;;
1887;SDS011;944;51.574;6.980;2022-09-21T17:01:28;7.20;;;2.77;;
1887;SDS011;944;51.574;6.980;2022-09-21T17:04:00;8.70;;;2.80;;
1887;SDS011;944;51.574;6.980;2022-09-21T17:06:27;5.57;;;2.77;;
1887;SDS011;944;51.574;6.980;2022-09-21T17:08:54;8.40;;;2.77;;
1887;SDS011;944;51.574;6.980;2022-09-21T17:11:26;6.33;;;3.43;;
1887;SDS011;944;51.574;6.980;2022-09-21T17:13:55;13.20;;;3.70;;
1887;SDS011;944;51.574;6.980;2022-09-21T17:16:27;8.67;;;3.00;;
1887;SDS011;944;51.574;6.980;2022-09-21T17:18:54;8.37;;;3.30;;
1887;SDS011;944;51.574;6.980;2022-09-21T17:21:22;7.53;;;2.80;;
1887;SDS011;944;51.574;6.980;2022-09-21T17:23:49;9.70;;;3.53;;
1887;SDS011;944;51.574;6.980;2022-09-21T17:26:17;12.20;;;3.53;;
1887;SDS011;944;51.574;6.980;2022-09-21T17:35:45;7.30;;;2.93;;
1887;SDS011;944;51.574;6.980;2022-09-21T17:38:14;7.90;;;3.03;;
1887;SDS011;944;51.574;6.980;2022-09-21T17:40:46;14.40;;;4.17;;
1887;SDS011;944;51.574;6.980;2022-09-21T17:43:53;8.30;;;3.03;;
1887;SDS011;944;51.574;6.980;2022-09-21T17:46:39;5.80;;;3.00;;
1887;SDS011;944;51.574;6.980;2022-09-21T17:49:24;8.03;;;3.37;;
1887;SDS011;944;51.574;6.980;2022-09-21T17:51:52;8.10;;;2.87;;
1887;SDS011;944;51.574;6.980;2022-09-21T17:54:37;10.00;;;3.40;;
1887;SDS011;944;51.574;6.980;2022-09-21T17:57:12;12.70;;;3.97;;
1887;SDS011;944;51.574;6.980;2022-09-21T18:00:29;10.07;;;2.90;;
1887;SDS011;944;51.574;6.980;2022-09-21T18:03:14;10.43;;;2.93;;
1887;SDS011;944;51.574;6.980;2022-09-21T18:05:48;7.07;;;2.97;;
1887;SDS011;944;51.574;6.980;2022-09-21T18:08:21;6.30;;;2.87;;
1887;SDS011;944;51.574;6.980;2022-09-21T18:10:54;9.73;;;3.00;;
1887;SDS011;944;51.574;6.980;2022-09-21T18:13:50;4.53;;;2.77;;
1887;SDS011;944;51.574;6.980;2022-09-21T18:20:26;8.20;;;2.63;;
1887;SDS011;944;51.574;6.980;2022-09-21T18:23:16;14.43;;;10.00;;
1887;SDS011;944;51.574;6.980;2022-09-21T18:25:50;6.33;;;3.13;;
1887;SDS011;944;51.574;6.980;2022-09-21T18:28:24;8.13;;;2.90;;
1887;SDS011;944;51.574;6.980;2022-09-21T18:31:37;6.20;;;3.20;;
1887;SDS011;944;51.574;6.980;2022-09-21T18:34:26;10.30;;;3.03;;
1887;SDS011;944;51.574;6.980;2022-09-21T18:37:22;4.70;;;2.90;;
1887;SDS011;944;51.574;6.980;2022-09-21T18:40:10;10.07;;;3.60;;
1887;SDS011;944;51.574;6.980;2022-09-21T18:42:50;14.07;;;4.03;;
1887;SDS011;944;51.574;6.980;2022-09-21T18:45:27;14.60;;;4.20;;
1887;SDS011;944;51.574;6.980;2022-09-21T18:48:04;8.03;;;4.10;;
1887;SDS011;944;51.574;6.980;2022-09-21T18:51:10;6.93;;;3.90;;
1887;SDS011;944;51.574;6.980;2022-09-21T18:54:01;5.10;;;4.03;;
1887;SDS011;944;51.574;6.980;2022-09-21T18:56:35;16.27;;;5.53;;
1887;SDS011;944;51.574;6.980;2022-09-21T18:59:13;17.33;;;6.30;;
1887;SDS011;944;51.574;6.980;2022-09-21T19:01:42;14.83;;;6.70;;
1887;SDS011;944;51.574;6.980;2022-09-21T19:04:11;9.93;;;6.57;;
1887;SDS011;944;51.574;6.980;2022-09-21T19:06:45;13.30;;;7.00;;
1887;SDS011;944;51.574;6.980;2022-09-21T19:16:44;10.77;;;6.53;;
1887;SDS011;944;51.574;6.980;2022-09-21T19:19:56;15.70;;;6.53;;
1887;SDS011;944;51.574;6.980;2022-09-21T19:23:03;11.77;;;6.50;;
1887;SDS011;944;51.574;6.980;2022-09-21T19:25:41;12.60;;;6.60;;
1887;SDS011;944;51.574;6.980;2022-09-21T19:28:16;11.33;;;6.07;;
1887;SDS011;944;51.574;6.980;2022-09-21T19:31:07;10.87;;;5.50;;
1887;SDS011;944;51.574;6.980;2022-09-21T19:33:38;10.77;;;5.73;;
1887;SDS011;944;51.574;6.980;2022-09-21T19:36:15;10.00;;;6.63;;
1887;SDS011;944;51.574;6.980;2022-09-21T19:38:44;8.33;;;5.77;;
1887;SDS011;944;51.574;6.980;2022-09-21T19:41:23;10.00;;;5.40;;
1887;SDS011;944;51.574;6.980;2022-09-21T19:44:37;12.33;;;6.10;;
1887;SDS011;944;51.574;6.980;2022-09-21T19:51:23;7.53;;;4.90;;
1887;SDS011;944;51.574;6.980;2022-09-21T19:54:35;19.93;;;5.97;;
1887;SDS011;944;51.574;6.980;2022-09-21T19:57:30;14.23;;;5.50;;
1887;SDS011;944;51.574;6.980;2022-09-21T20:00:33;8.50;;;5.73;;
1887;SDS011;944;51.574;6.980;2022-09-21T20:03:03;11.77;;;5.97;;
1887;SDS011;944;51.574;6.980;2022-09-21T20:05:43;8.53;;;5.63;;
1887;SDS011;944;51.574;6.980;2022-09-21T20:08:21;9.37;;;5.70;;
1887;SDS011;944;51.574;6.980;2022-09-21T20:10:56;14.87;;;6.30;;
1887;SDS011;944;51.574;6.980;2022-09-21T20:13:49;9.60;;;5.90;;
1887;SDS011;944;51.574;6.980;2022-09-21T20:16:36;13.97;;;6.17;;
1887;SDS011;944;51.574;6.980;2022-09-21T20:19:15;10.83;;;5.97;;
1887;SDS011;944;51.574;6.980;2022-09-21T20:22:28;13.97;;;7.07;;
1887;SDS011;944;51.574;6.980;2022-09-21T20:25:10;14.10;;;7.63;;
1887;SDS011;944;51.574;6.980;2022-09-21T20:27:44;15.57;;;7.70;;
1887;SDS011;944;51.574;6.980;2022-09-21T20:30:15;14.30;;;7.90;;
1887;SDS011;944;51.574;6.980;2022-09-21T20:32:51;14.17;;;7.80;;
1887;SDS011;944;51.574;6.980;2022-09-21T20:35:32;14.23;;;8.07;;
1887;SDS011;944;51.574;6.980;2022-09-21T20:41:42;17.57;;;8.83;;
1887;SDS011;944;51.574;6.980;2022-09-21T20:47:50;18.50;;;9.40;;
1887;SDS011;944;51.574;6.980;2022-09-21T20:50:19;13.43;;;8.37;;
1887;SDS011;944;51.574;6.980;2022-09-21T20:52:54;21.23;;;9.40;;
1887;SDS011;944;51.574;6.980;2022-09-21T20:55:23;18.67;;;9.00;;
1887;SDS011;944;51.574;6.980;2022-09-21T21:07:05;22.53;;;10.63;;
1887;SDS011;944;51.574;6.980;2022-09-21T21:10:19;18.07;;;9.67;;
1887;SDS011;944;51.574;6.980;2022-09-21T21:12:58;20.47;;;10.90;;
1887;SDS011;944;51.574;6.980;2022-09-21T21:15:31;19.90;;;11.50;;
1887;SDS011;944;51.574;6.980;2022-09-21T21:34:12;22.80;;;12.37;;
1887;SDS011;944;51.574;6.980;2022-09-21T21:58:42;34.77;;;13.93;;
1887;SDS011;944;51.574;6.980;2022-09-21T22:06:24;22.00;;;12.80;;
1887;SDS011;944;51.574;6.980;2022-09-21T22:25:39;13.63;;;8.57;;
1887;SDS011;944;51.574;6.980;2022-09-21T22:28:09;11.73;;;8.83;;
1887;SDS011;944;51.574;6.980;2022-09-21T22:30:37;19.27;;;8.43;;
1887;SDS011;944;51.574;6.980;2022-09-21T22:33:06;17.27;;;9.70;;
1887;SDS011;944;51.574;6.980;2022-09-21T22:35:33;14.87;;;8.37;;
1887;SDS011;944;51.574;6.980;2022-09-21T22:38:04;14.93;;;8.47;;
1887;SDS011;944;51.574;6.980;2022-09-21T22:40:36;13.70;;;7.77;;
1887;SDS011;944;51.574;6.980;2022-09-21T22:43:04;10.80;;;7.87;;
1887;SDS011;944;51.574;6.980;2022-09-21T22:45:32;14.63;;;8.60;;
1887;SDS011;944;51.574;6.980;2022-09-21T22:48:00;13.33;;;7.90;;
1887;SDS011;944;51.574;6.980;2022-09-21T22:50:31;13.73;;;7.90;;
1887;SDS011;944;51.574;6.980;2022-09-21T22:53:00;13.43;;;7.87;;
1887;SDS011;944;51.574;6.980;2022-09-21T22:55:29;18.30;;;7.77;;
1887;SDS011;944;51.574;6.980;2022-09-21T22:57:56;10.80;;;7.20;;
1887;SDS011;944;51.574;6.980;2022-09-21T23:00:24;13.90;;;8.43;;
1887;SDS011;944;51.574;6.980;2022-09-21T23:02:54;12.93;;;8.00;;
1887;SDS011;944;51.574;6.980;2022-09-21T23:05:22;11.80;;;7.67;;
1887;SDS011;944;51.574;6.980;2022-09-21T23:07:51;13.10;;;7.70;;
1887;SDS011;944;51.574;6.980;2022-09-21T23:10:20;17.87;;;7.20;;
1887;SDS011;944;51.574;6.980;2022-09-21T23:12:52;19.90;;;8.63;;
1887;SDS011;944;51.574;6.980;2022-09-21T23:15:20;13.43;;;7.20;;
1887;SDS011;944;51.574;6.980;2022-09-21T23:17:47;11.47;;;6.77;;
1887;SDS011;944;51.574;6.980;2022-09-21T23:20:19;13.53;;;7.03;;
1887;SDS011;944;51.574;6.980;2022-09-21T23:22:46;11.93;;;6.63;;
1887;SDS011;944;51.574;6.980;2022-09-21T23:25:14;12.43;;;6.97;;
1887;SDS011;944;51.574;6.980;2022-09-21T23:27:44;10.87;;;6.60;;
1887;SDS011;944;51.574;6.980;2022-09-21T23:30:15;11.00;;;7.10;;
1887;SDS011;944;51.574;6.980;2022-09-21T23:32:42;11.27;;;7.20;;
1887;SDS011;944;51.574;6.980;2022-09-21T23:35:10;12.23;;;8.10;;
1887;SDS011;944;51.574;6.980;2022-09-21T23:37:38;14.67;;;7.90;;
1887;SDS011;944;51.574;6.980;2022-09-21T23:40:07;19.33;;;8.03;;
1887;SDS011;944;51.574;6.980;2022-09-21T23:42:35;13.80;;;7.83;;
1887;SDS011;944;51.574;6.980;2022-09-21T23:45:03;14.47;;;8.03;;
1887;SDS011;944;51.574;6.980;2022-09-21T23:47:33;15.27;;;7.80;;
1887;SDS011;944;51.574;6.980;2022-09-21T23:50:00;11.63;;;7.63;;
1887;SDS011;944;51.574;6.980;2022-09-21T23:52:29;13.43;;;7.30;;
1887;SDS011;944;51.574;6.980;2022-09-21T23:54:58;13.90;;;7.30;;
1887;SDS011;944;51.574;6.980;2022-09-21T23:57:30;15.90;;;7.57;;
1887;SDS011;944;51.574;6.980;2022-09-21T23:59:57;16.33;;;8.30;;
